sensor_id;sensor_type;location;lat;lon;timestamp;P1;durP1;ratioP1;P2;durP2;ratioP2
30080;SDS011;16902;50.816;12.828;2022-08-05T00:01:20;9.00;;;8.10;;
30080;SDS011;16902;50.816;12.828;2022-08-05T00:06:29;8.45;;;7.75;;
30080;SDS011;16902;50.816;12.828;2022-08-05T00:11:33;7.95;;;7.35;;
30080;SDS011;16902;50.816;12.828;2022-08-05T00:16:48;7.82;;;7.13;;
30080;SDS011;16902;50.816;12.828;2022-08-05T00:21:54;8.18;;;7.38;;
30080;SDS011;16902;50.816;12.828;2022-08-05T00:26:55;7.70;;;7.10;;
30080;SDS011;16902;50.816;12.828;2022-08-05T00:31:59;7.80;;;7.00;;
30080;SDS011;16902;50.816;12.828;2022-08-05T00:37:15;7.38;;;6.78;;
30080;SDS011;16902;50.816;12.828;2022-08-05T00:42:36;7.30;;;6.40;;
30080;SDS011;16902;50.816;12.828;2022-08-05T00:47:40;7.68;;;6.40;;
30080;SDS011;16902;50.816;12.828;2022-08-05T00:52:57;5.95;;;5.45;;
30080;SDS011;16902;50.816;12.828;2022-08-05T00:57:59;6.55;;;6.00;;
30080;SDS011;16902;50.816;12.828;2022-08-05T01:03:01;6.47;;;5.97;;
30080;SDS011;16902;50.816;12.828;2022-08-05T01:08:08;6.35;;;5.85;;
30080;SDS011;16902;50.816;12.828;2022-08-05T01:13:31;6.10;;;5.60;;
30080;SDS011;16902;50.816;12.828;2022-08-05T01:19:04;6.63;;;6.13;;
30080;SDS011;16902;50.816;12.828;2022-08-05T01:24:24;6.00;;;5.60;;
30080;SDS011;16902;50.816;12.828;2022-08-05T01:29:37;6.20;;;5.70;;
30080;SDS011;16902;50.816;12.828;2022-08-05T01:34:47;6.55;;;5.95;;
30080;SDS011;16902;50.816;12.828;2022-08-05T01:39:54;6.13;;;5.63;;
30080;SDS011;16902;50.816;12.828;2022-08-05T01:44:59;6.45;;;5.90;;
30080;SDS011;16902;50.816;12.828;2022-08-05T01:50:05;6.68;;;6.18;;
30080;SDS011;16902;50.816;12.828;2022-08-05T01:55:17;6.65;;;5.50;;
30080;SDS011;16902;50.816;12.828;2022-08-05T02:00:22;5.90;;;5.35;;
30080;SDS011;16902;50.816;12.828;2022-08-05T02:05:32;6.07;;;5.57;;
30080;SDS011;16902;50.816;12.828;2022-08-05T02:10:58;6.82;;;6.22;;
30080;SDS011;16902;50.816;12.828;2022-08-05T02:16:06;6.45;;;6.03;;
30080;SDS011;16902;50.816;12.828;2022-08-05T02:21:25;6.68;;;6.07;;
30080;SDS011;16902;50.816;12.828;2022-08-05T02:26:48;5.93;;;5.53;;
30080;SDS011;16902;50.816;12.828;2022-08-05T02:31:55;6.20;;;5.70;;
30080;SDS011;16902;50.816;12.828;2022-08-05T02:37:06;6.03;;;5.53;;
30080;SDS011;16902;50.816;12.828;2022-08-05T02:42:10;6.95;;;6.45;;
30080;SDS011;16902;50.816;12.828;2022-08-05T02:47:26;7.05;;;6.47;;
30080;SDS011;16902;50.816;12.828;2022-08-05T02:52:51;6.90;;;6.30;;
30080;SDS011;16902;50.816;12.828;2022-08-05T02:57:54;6.50;;;6.00;;
30080;SDS011;16902;50.816;12.828;2022-08-05T03:03:17;7.10;;;6.60;;
30080;SDS011;16902;50.816;12.828;2022-08-05T03:08:24;6.78;;;6.28;;
30080;SDS011;16902;50.816;12.828;2022-08-05T03:13:30;7.28;;;6.68;;
30080;SDS011;16902;50.816;12.828;2022-08-05T03:18:52;7.07;;;6.32;;
30080;SDS011;16902;50.816;12.828;2022-08-05T03:23:54;7.03;;;6.32;;
30080;SDS011;16902;50.816;12.828;2022-08-05T03:28:58;6.63;;;6.13;;
30080;SDS011;16902;50.816;12.828;2022-08-05T03:34:01;6.75;;;6.25;;
30080;SDS011;16902;50.816;12.828;2022-08-05T03:39:07;6.75;;;6.25;;
30080;SDS011;16902;50.816;12.828;2022-08-05T03:44:20;7.55;;;6.90;;
30080;SDS011;16902;50.816;12.828;2022-08-05T03:49:22;7.57;;;6.97;;
30080;SDS011;16902;50.816;12.828;2022-08-05T03:54:47;6.80;;;6.30;;
30080;SDS011;16902;50.816;12.828;2022-08-05T04:00:13;7.80;;;6.78;;
30080;SDS011;16902;50.816;12.828;2022-08-05T04:05:16;7.57;;;6.78;;
30080;SDS011;16902;50.816;12.828;2022-08-05T04:10:23;7.65;;;6.60;;
30080;SDS011;16902;50.816;12.828;2022-08-05T04:15:28;6.10;;;5.60;;
30080;SDS011;16902;50.816;12.828;2022-08-05T04:20:36;7.55;;;6.85;;
30080;SDS011;16902;50.816;12.828;2022-08-05T04:25:41;6.63;;;6.03;;
30080;SDS011;16902;50.816;12.828;2022-08-05T04:31:01;6.30;;;5.80;;
30080;SDS011;16902;50.816;12.828;2022-08-05T04:36:08;6.03;;;5.53;;
30080;SDS011;16902;50.816;12.828;2022-08-05T04:41:30;6.90;;;6.20;;
30080;SDS011;16902;50.816;12.828;2022-08-05T04:46:39;5.95;;;5.45;;
30080;SDS011;16902;50.816;12.828;2022-08-05T04:51:47;8.07;;;5.28;;
30080;SDS011;16902;50.816;12.828;2022-08-05T04:57:00;5.57;;;5.07;;
30080;SDS011;16902;50.816;12.828;2022-08-05T05:02:02;5.88;;;5.47;;
30080;SDS011;16902;50.816;12.828;2022-08-05T05:07:24;5.88;;;5.47;;
30080;SDS011;16902;50.816;12.828;2022-08-05T05:12:32;7.18;;;6.13;;
30080;SDS011;16902;50.816;12.828;2022-08-05T05:17:37;6.78;;;6.10;;
30080;SDS011;16902;50.816;12.828;2022-08-05T05:22:58;6.13;;;5.10;;
30080;SDS011;16902;50.816;12.828;2022-08-05T05:28:19;8.07;;;6.15;;
30080;SDS011;16902;50.816;12.828;2022-08-05T05:33:25;8.73;;;6.90;;
30080;SDS011;16902;50.816;12.828;2022-08-05T05:38:28;7.78;;;6.53;;
30080;SDS011;16902;50.816;12.828;2022-08-05T05:43:29;8.10;;;5.57;;
30080;SDS011;16902;50.816;12.828;2022-08-05T05:48:51;7.60;;;6.18;;
30080;SDS011;16902;50.816;12.828;2022-08-05T05:53:53;7.07;;;6.25;;
30080;SDS011;16902;50.816;12.828;2022-08-05T05:59:03;8.68;;;6.57;;
30080;SDS011;16902;50.816;12.828;2022-08-05T06:04:08;6.60;;;6.00;;
30080;SDS011;16902;50.816;12.828;2022-08-05T06:09:13;7.03;;;6.32;;
30080;SDS011;16902;50.816;12.828;2022-08-05T06:14:25;11.55;;;6.53;;
30080;SDS011;16902;50.816;12.828;2022-08-05T06:19:29;9.27;;;6.45;;
30080;SDS011;16902;50.816;12.828;2022-08-05T06:24:39;8.98;;;6.43;;
30080;SDS011;16902;50.816;12.828;2022-08-05T06:29:49;7.80;;;7.00;;
30080;SDS011;16902;50.816;12.828;2022-08-05T06:35:11;10.40;;;6.28;;
30080;SDS011;16902;50.816;12.828;2022-08-05T06:40:22;7.90;;;6.68;;
30080;SDS011;16902;50.816;12.828;2022-08-05T06:45:32;7.75;;;6.88;;
30080;SDS011;16902;50.816;12.828;2022-08-05T06:50:54;5.70;;;5.20;;
30080;SDS011;16902;50.816;12.828;2022-08-05T06:55:59;7.22;;;6.03;;
30080;SDS011;16902;50.816;12.828;2022-08-05T07:01:01;11.70;;;6.72;;
30080;SDS011;16902;50.816;12.828;2022-08-05T07:06:07;7.45;;;5.85;;
30080;SDS011;16902;50.816;12.828;2022-08-05T07:11:15;8.85;;;6.65;;
30080;SDS011;16902;50.816;12.828;2022-08-05T07:16:23;6.80;;;6.10;;
30080;SDS011;16902;50.816;12.828;2022-08-05T07:22:03;7.38;;;6.20;;
30080;SDS011;16902;50.816;12.828;2022-08-05T07:27:08;10.80;;;5.82;;
30080;SDS011;16902;50.816;12.828;2022-08-05T07:32:10;7.88;;;5.43;;
30080;SDS011;16902;50.816;12.828;2022-08-05T07:37:14;8.98;;;6.03;;
30080;SDS011;16902;50.816;12.828;2022-08-05T07:42:17;5.63;;;4.97;;
30080;SDS011;16902;50.816;12.828;2022-08-05T07:47:31;7.50;;;5.80;;
30080;SDS011;16902;50.816;12.828;2022-08-05T07:52:43;7.40;;;6.57;;
30080;SDS011;16902;50.816;12.828;2022-08-05T07:57:45;7.55;;;5.68;;
30080;SDS011;16902;50.816;12.828;2022-08-05T08:03:02;5.47;;;5.05;;
30080;SDS011;16902;50.816;12.828;2022-08-05T08:08:16;7.57;;;6.13;;
30080;SDS011;16902;50.816;12.828;2022-08-05T08:13:20;7.72;;;5.97;;
30080;SDS011;16902;50.816;12.828;2022-08-05T08:18:29;9.50;;;5.97;;
30080;SDS011;16902;50.816;12.828;2022-08-05T08:23:31;6.95;;;6.13;;
30080;SDS011;16902;50.816;12.828;2022-08-05T08:28:53;7.95;;;6.85;;
30080;SDS011;16902;50.816;12.828;2022-08-05T08:34:16;10.27;;;6.43;;
30080;SDS011;16902;50.816;12.828;2022-08-05T08:39:19;8.63;;;7.07;;
30080;SDS011;16902;50.816;12.828;2022-08-05T08:44:24;7.40;;;5.70;;
30080;SDS011;16902;50.816;12.828;2022-08-05T08:49:50;5.85;;;5.35;;
30080;SDS011;16902;50.816;12.828;2022-08-05T08:55:13;6.88;;;6.22;;
30080;SDS011;16902;50.816;12.828;2022-08-05T09:00:32;6.63;;;5.80;;
30080;SDS011;16902;50.816;12.828;2022-08-05T09:05:36;6.00;;;5.53;;
30080;SDS011;16902;50.816;12.828;2022-08-05T09:10:58;6.38;;;5.80;;
30080;SDS011;16902;50.816;12.828;2022-08-05T09:16:00;6.97;;;5.80;;
30080;SDS011;16902;50.816;12.828;2022-08-05T09:21:03;6.55;;;5.70;;
30080;SDS011;16902;50.816;12.828;2022-08-05T09:26:13;6.35;;;5.75;;
30080;SDS011;16902;50.816;12.828;2022-08-05T09:31:22;6.70;;;5.78;;
30080;SDS011;16902;50.816;12.828;2022-08-05T09:36:48;6.13;;;5.32;;
30080;SDS011;16902;50.816;12.828;2022-08-05T09:41:57;6.85;;;5.75;;
30080;SDS011;16902;50.816;12.828;2022-08-05T09:57:30;5.90;;;5.40;;
30080;SDS011;16902;50.816;12.828;2022-08-05T10:02:37;8.25;;;5.72;;
30080;SDS011;16902;50.816;12.828;2022-08-05T10:07:42;5.53;;;5.03;;
30080;SDS011;16902;50.816;12.828;2022-08-05T10:13:07;5.25;;;4.75;;
30080;SDS011;16902;50.816;12.828;2022-08-05T10:18:11;6.10;;;5.60;;
30080;SDS011;16902;50.816;12.828;2022-08-05T10:28:51;5.72;;;5.18;;
30080;SDS011;16902;50.816;12.828;2022-08-05T10:33:56;5.38;;;4.97;;
30080;SDS011;16902;50.816;12.828;2022-08-05T10:39:02;6.35;;;5.07;;
30080;SDS011;16902;50.816;12.828;2022-08-05T10:44:16;5.45;;;5.00;;
30080;SDS011;16902;50.816;12.828;2022-08-05T10:49:19;5.97;;;4.72;;
30080;SDS011;16902;50.816;12.828;2022-08-05T10:54:47;6.57;;;4.93;;
30080;SDS011;16902;50.816;12.828;2022-08-05T11:05:20;5.60;;;5.07;;
30080;SDS011;16902;50.816;12.828;2022-08-05T11:10:29;5.20;;;4.70;;
30080;SDS011;16902;50.816;12.828;2022-08-05T11:15:34;5.20;;;4.70;;
30080;SDS011;16902;50.816;12.828;2022-08-05T11:21:00;5.85;;;4.15;;
30080;SDS011;16902;50.816;12.828;2022-08-05T11:31:32;3.65;;;3.13;;
30080;SDS011;16902;50.816;12.828;2022-08-05T11:36:54;3.30;;;3.00;;
30080;SDS011;16902;50.816;12.828;2022-08-05T11:41:57;3.35;;;2.97;;
30080;SDS011;16902;50.816;12.828;2022-08-05T11:47:05;4.85;;;3.00;;
30080;SDS011;16902;50.816;12.828;2022-08-05T11:52:24;2.88;;;2.65;;
30080;SDS011;16902;50.816;12.828;2022-08-05T11:57:31;3.13;;;2.80;;
30080;SDS011;16902;50.816;12.828;2022-08-05T12:02:53;4.47;;;2.85;;
30080;SDS011;16902;50.816;12.828;2022-08-05T12:07:56;3.05;;;2.85;;
30080;SDS011;16902;50.816;12.828;2022-08-05T12:13:11;3.40;;;3.10;;
30080;SDS011;16902;50.816;12.828;2022-08-05T12:18:37;3.53;;;3.20;;
30080;SDS011;16902;50.816;12.828;2022-08-05T12:34:36;3.75;;;2.50;;
30080;SDS011;16902;50.816;12.828;2022-08-05T12:39:41;2.85;;;2.53;;
30080;SDS011;16902;50.816;12.828;2022-08-05T12:44:48;2.65;;;2.55;;
30080;SDS011;16902;50.816;12.828;2022-08-05T12:49:50;2.85;;;2.60;;
30080;SDS011;16902;50.816;12.828;2022-08-05T13:00:25;3.78;;;2.97;;
30080;SDS011;16902;50.816;12.828;2022-08-05T13:05:48;3.00;;;2.80;;
30080;SDS011;16902;50.816;12.828;2022-08-05T13:10:50;3.30;;;2.90;;
30080;SDS011;16902;50.816;12.828;2022-08-05T13:15:52;3.58;;;2.80;;
30080;SDS011;16902;50.816;12.828;2022-08-05T13:20:54;3.30;;;3.00;;
30080;SDS011;16902;50.816;12.828;2022-08-05T13:25:56;5.13;;;2.85;;
30080;SDS011;16902;50.816;12.828;2022-08-05T13:31:01;3.08;;;2.42;;
30080;SDS011;16902;50.816;12.828;2022-08-05T13:36:14;2.90;;;2.65;;
30080;SDS011;16902;50.816;12.828;2022-08-05T13:41:16;2.80;;;2.60;;
30080;SDS011;16902;50.816;12.828;2022-08-05T13:46:18;2.85;;;2.53;;
30080;SDS011;16902;50.816;12.828;2022-08-05T13:51:43;2.25;;;2.05;;
30080;SDS011;16902;50.816;12.828;2022-08-05T13:56:47;2.45;;;2.05;;
30080;SDS011;16902;50.816;12.828;2022-08-05T14:01:52;2.83;;;2.25;;
30080;SDS011;16902;50.816;12.828;2022-08-05T14:07:00;2.50;;;2.30;;
30080;SDS011;16902;50.816;12.828;2022-08-05T14:12:22;3.70;;;2.67;;
30080;SDS011;16902;50.816;12.828;2022-08-05T14:17:33;2.78;;;2.58;;
30080;SDS011;16902;50.816;12.828;2022-08-05T14:22:35;4.47;;;2.50;;
30080;SDS011;16902;50.816;12.828;2022-08-05T14:27:37;2.70;;;2.30;;
30080;SDS011;16902;50.816;12.828;2022-08-05T14:32:50;2.67;;;2.47;;
30080;SDS011;16902;50.816;12.828;2022-08-05T14:37:52;2.55;;;2.35;;
30080;SDS011;16902;50.816;12.828;2022-08-05T14:42:56;2.92;;;2.72;;
30080;SDS011;16902;50.816;12.828;2022-08-05T14:47:58;3.00;;;2.70;;
30080;SDS011;16902;50.816;12.828;2022-08-05T14:53:06;2.63;;;2.42;;
30080;SDS011;16902;50.816;12.828;2022-08-05T14:58:10;2.70;;;2.33;;
30080;SDS011;16902;50.816;12.828;2022-08-05T15:03:14;3.83;;;2.28;;
30080;SDS011;16902;50.816;12.828;2022-08-05T15:08:18;3.10;;;2.40;;
30080;SDS011;16902;50.816;12.828;2022-08-05T15:13:40;2.22;;;2.13;;
30080;SDS011;16902;50.816;12.828;2022-08-05T15:18:46;5.40;;;2.42;;
30080;SDS011;16902;50.816;12.828;2022-08-05T15:23:48;3.45;;;2.03;;
30080;SDS011;16902;50.816;12.828;2022-08-05T15:28:51;5.00;;;2.00;;
30080;SDS011;16902;50.816;12.828;2022-08-05T15:33:53;2.50;;;2.10;;
30080;SDS011;16902;50.816;12.828;2022-08-05T15:39:15;2.25;;;2.00;;
30080;SDS011;16902;50.816;12.828;2022-08-05T15:44:38;2.40;;;2.30;;
30080;SDS011;16902;50.816;12.828;2022-08-05T15:49:44;4.47;;;2.38;;
30080;SDS011;16902;50.816;12.828;2022-08-05T15:54:59;3.03;;;2.40;;
30080;SDS011;16902;50.816;12.828;2022-08-05T16:00:03;4.32;;;2.92;;
30080;SDS011;16902;50.816;12.828;2022-08-05T16:05:06;3.28;;;2.70;;
30080;SDS011;16902;50.816;12.828;2022-08-05T16:10:11;2.90;;;2.50;;
30080;SDS011;16902;50.816;12.828;2022-08-05T16:15:13;3.60;;;2.88;;
30080;SDS011;16902;50.816;12.828;2022-08-05T16:20:19;3.78;;;2.75;;
30080;SDS011;16902;50.816;12.828;2022-08-05T16:25:20;3.70;;;2.75;;
30080;SDS011;16902;50.816;12.828;2022-08-05T16:30:34;5.00;;;3.20;;
30080;SDS011;16902;50.816;12.828;2022-08-05T16:35:36;3.17;;;2.88;;
30080;SDS011;16902;50.816;12.828;2022-08-05T16:40:43;3.42;;;3.13;;
30080;SDS011;16902;50.816;12.828;2022-08-05T16:45:56;3.33;;;3.00;;
30080;SDS011;16902;50.816;12.828;2022-08-05T16:51:13;3.40;;;3.10;;
30080;SDS011;16902;50.816;12.828;2022-08-05T16:56:16;5.82;;;4.25;;
30080;SDS011;16902;50.816;12.828;2022-08-05T17:01:20;14.93;;;7.18;;
30080;SDS011;16902;50.816;12.828;2022-08-05T17:06:24;11.60;;;8.05;;
30080;SDS011;16902;50.816;12.828;2022-08-05T17:11:26;12.65;;;9.00;;
30080;SDS011;16902;50.816;12.828;2022-08-05T17:16:36;13.23;;;8.73;;
30080;SDS011;16902;50.816;12.828;2022-08-05T17:21:38;10.88;;;9.77;;
30080;SDS011;16902;50.816;12.828;2022-08-05T17:26:40;13.10;;;11.52;;
30080;SDS011;16902;50.816;12.828;2022-08-05T17:31:42;11.48;;;10.27;;
30080;SDS011;16902;50.816;12.828;2022-08-05T17:36:59;16.38;;;12.82;;
30080;SDS011;16902;50.816;12.828;2022-08-05T17:42:01;15.52;;;13.48;;
30080;SDS011;16902;50.816;12.828;2022-08-05T17:47:21;13.50;;;12.20;;
30080;SDS011;16902;50.816;12.828;2022-08-05T17:52:24;14.13;;;12.52;;
30080;SDS011;16902;50.816;12.828;2022-08-05T17:57:26;14.30;;;10.50;;
30080;SDS011;16902;50.816;12.828;2022-08-05T18:02:28;13.57;;;11.27;;
30080;SDS011;16902;50.816;12.828;2022-08-05T18:07:31;15.98;;;12.18;;
30080;SDS011;16902;50.816;12.828;2022-08-05T18:12:42;15.27;;;11.88;;
30080;SDS011;16902;50.816;12.828;2022-08-05T18:17:47;12.85;;;11.23;;
30080;SDS011;16902;50.816;12.828;2022-08-05T18:23:04;15.30;;;11.98;;
30080;SDS011;16902;50.816;12.828;2022-08-05T18:28:12;18.80;;;12.43;;
30080;SDS011;16902;50.816;12.828;2022-08-05T18:33:20;18.52;;;12.40;;
30080;SDS011;16902;50.816;12.828;2022-08-05T18:38:24;12.32;;;9.82;;
30080;SDS011;16902;50.816;12.828;2022-08-05T18:43:27;9.63;;;8.07;;
30080;SDS011;16902;50.816;12.828;2022-08-05T18:48:38;9.55;;;7.55;;
30080;SDS011;16902;50.816;12.828;2022-08-05T18:53:42;9.43;;;6.55;;
30080;SDS011;16902;50.816;12.828;2022-08-05T18:58:51;9.27;;;6.78;;
30080;SDS011;16902;50.816;12.828;2022-08-05T19:04:01;10.10;;;6.07;;
30080;SDS011;16902;50.816;12.828;2022-08-05T19:09:05;6.38;;;5.60;;
30080;SDS011;16902;50.816;12.828;2022-08-05T19:14:08;6.85;;;4.85;;
30080;SDS011;16902;50.816;12.828;2022-08-05T19:19:30;7.70;;;4.78;;
30080;SDS011;16902;50.816;12.828;2022-08-05T19:24:31;8.27;;;5.53;;
30080;SDS011;16902;50.816;12.828;2022-08-05T19:29:35;7.03;;;4.65;;
30080;SDS011;16902;50.816;12.828;2022-08-05T19:34:39;6.32;;;4.40;;
30080;SDS011;16902;50.816;12.828;2022-08-05T19:39:42;5.38;;;3.78;;
30080;SDS011;16902;50.816;12.828;2022-08-05T19:44:51;6.45;;;3.83;;
30080;SDS011;16902;50.816;12.828;2022-08-05T19:49:56;3.88;;;3.28;;
30080;SDS011;16902;50.816;12.828;2022-08-05T19:55:03;3.33;;;3.03;;
30080;SDS011;16902;50.816;12.828;2022-08-05T20:00:25;4.13;;;3.22;;
30080;SDS011;16902;50.816;12.828;2022-08-05T20:05:27;2.78;;;2.15;;
30080;SDS011;16902;50.816;12.828;2022-08-05T20:10:49;3.20;;;2.22;;
30080;SDS011;16902;50.816;12.828;2022-08-05T20:15:52;4.57;;;2.38;;
30080;SDS011;16902;50.816;12.828;2022-08-05T20:20:58;4.80;;;2.08;;
30080;SDS011;16902;50.816;12.828;2022-08-05T20:26:01;2.30;;;1.75;;
30080;SDS011;16902;50.816;12.828;2022-08-05T20:31:03;2.88;;;2.38;;
30080;SDS011;16902;50.816;12.828;2022-08-05T20:36:05;2.53;;;2.13;;
30080;SDS011;16902;50.816;12.828;2022-08-05T20:41:10;4.25;;;2.58;;
30080;SDS011;16902;50.816;12.828;2022-08-05T20:46:24;3.95;;;2.42;;
30080;SDS011;16902;50.816;12.828;2022-08-05T20:51:26;3.05;;;2.55;;
30080;SDS011;16902;50.816;12.828;2022-08-05T20:56:28;3.38;;;2.22;;
30080;SDS011;16902;50.816;12.828;2022-08-05T21:01:42;2.80;;;2.53;;
30080;SDS011;16902;50.816;12.828;2022-08-05T21:06:45;4.07;;;2.78;;
30080;SDS011;16902;50.816;12.828;2022-08-05T21:11:47;3.00;;;2.72;;
30080;SDS011;16902;50.816;12.828;2022-08-05T21:17:10;3.40;;;2.70;;
30080;SDS011;16902;50.816;12.828;2022-08-05T21:22:12;2.83;;;2.63;;
30080;SDS011;16902;50.816;12.828;2022-08-05T21:27:14;3.53;;;2.60;;
30080;SDS011;16902;50.816;12.828;2022-08-05T21:32:17;3.50;;;2.20;;
30080;SDS011;16902;50.816;12.828;2022-08-05T21:37:20;2.42;;;2.08;;
30080;SDS011;16902;50.816;12.828;2022-08-05T21:42:23;2.40;;;2.10;;
30080;SDS011;16902;50.816;12.828;2022-08-05T21:47:45;2.88;;;2.20;;
30080;SDS011;16902;50.816;12.828;2022-08-05T21:52:57;3.80;;;2.13;;
30080;SDS011;16902;50.816;12.828;2022-08-05T21:58:05;2.95;;;2.05;;
30080;SDS011;16902;50.816;12.828;2022-08-05T22:03:10;6.22;;;2.72;;
30080;SDS011;16902;50.816;12.828;2022-08-05T22:08:16;2.92;;;2.10;;
30080;SDS011;16902;50.816;12.828;2022-08-05T22:13:23;2.50;;;2.30;;
30080;SDS011;16902;50.816;12.828;2022-08-05T22:18:44;2.60;;;2.38;;
30080;SDS011;16902;50.816;12.828;2022-08-05T22:23:49;3.10;;;2.13;;
30080;SDS011;16902;50.816;12.828;2022-08-05T22:29:29;6.18;;;2.80;;
30080;SDS011;16902;50.816;12.828;2022-08-05T22:34:33;7.47;;;3.63;;
30080;SDS011;16902;50.816;12.828;2022-08-05T22:39:36;3.83;;;3.53;;
30080;SDS011;16902;50.816;12.828;2022-08-05T22:44:39;9.43;;;4.00;;
30080;SDS011;16902;50.816;12.828;2022-08-05T22:49:57;4.30;;;3.92;;
30080;SDS011;16902;50.816;12.828;2022-08-05T22:55:20;5.82;;;5.07;;
30080;SDS011;16902;50.816;12.828;2022-08-05T23:00:23;4.78;;;4.38;;
30080;SDS011;16902;50.816;12.828;2022-08-05T23:05:27;7.38;;;5.57;;
30080;SDS011;16902;50.816;12.828;2022-08-05T23:10:36;9.35;;;6.05;;
30080;SDS011;16902;50.816;12.828;2022-08-05T23:15:39;8.35;;;5.32;;
30080;SDS011;16902;50.816;12.828;2022-08-05T23:20:41;6.03;;;5.47;;
30080;SDS011;16902;50.816;12.828;2022-08-05T23:25:43;7.35;;;5.38;;
30080;SDS011;16902;50.816;12.828;2022-08-05T23:30:54;8.38;;;6.22;;
30080;SDS011;16902;50.816;12.828;2022-08-05T23:36:04;7.53;;;6.30;;
30080;SDS011;16902;50.816;12.828;2022-08-05T23:41:10;6.38;;;5.78;;
30080;SDS011;16902;50.816;12.828;2022-08-05T23:46:13;8.55;;;6.78;;
30080;SDS011;16902;50.816;12.828;2022-08-05T23:51:21;7.30;;;6.05;;
30080;SDS011;16902;50.816;12.828;2022-08-05T23:56:23;9.57;;;6.35;;
